Time;durP1;ratioP1;P1;durP2;ratioP2;P2;SDS_P1;SDS_P2;PMS_P1;PMS_P2;Temp;Humidity;BMP_temperature;BMP_pressure;BME280_temperature;BME280_humidity;BME280_pressure;Samples;Min_cycle;Max_cycle;Signal;HPM_P1;HPM_P2
2022/06/29 00:02:23;;;;;;;1561.07;999.90;;;18.70;99.90;;;;;;5066901;28;20194;-71
2022/06/29 00:04:48;;;;;;;1557.90;999.90;;;18.60;99.90;;;;;;5070441;28;20185;-71
2022/06/29 00:07:14;;;;;;;1527.97;999.90;;;18.50;99.90;;;;;;5068335;28;20209;-72
2022/06/29 00:09:40;;;;;;;1477.97;999.90;;;18.50;99.90;;;;;;5085598;28;20716;-72
2022/06/29 00:12:06;;;;;;;1500.35;999.90;;;18.50;99.90;;;;;;5065011;28;20525;-71
2022/06/29 00:14:31;;;;;;;1501.38;999.90;;;18.40;99.90;;;;;;5074609;28;20177;-71
2022/06/29 00:16:58;;;;;;;1552.22;999.90;;;18.50;99.90;;;;;;5073356;28;20541;-71
2022/06/29 00:19:23;;;;;;;1589.03;999.90;;;18.50;99.90;;;;;;5073073;28;20184;-71
2022/06/29 00:21:49;;;;;;;1649.50;999.90;;;18.40;99.90;;;;;;5070922;28;20185;-72
2022/06/29 00:24:15;;;;;;;1650.90;999.90;;;18.30;99.90;;;;;;5083352;28;20670;-71
2022/06/29 00:26:41;;;;;;;1663.45;999.90;;;18.20;99.90;;;;;;5059204;28;20197;-71
2022/06/29 00:29:06;;;;;;;1660.38;999.90;;;18.20;99.90;;;;;;5075707;28;20240;-72
2022/06/29 00:31:32;;;;;;;1672.18;999.90;;;18.20;99.90;;;;;;5054733;28;20189;-72
2022/06/29 00:33:58;;;;;;;1712.70;999.90;;;18.10;99.90;;;;;;5075511;28;20195;-72
2022/06/29 00:36:23;;;;;;;1684.28;999.90;;;18.10;99.90;;;;;;5084669;28;20185;-72
2022/06/29 00:38:49;;;;;;;1696.43;999.90;;;18.10;99.90;;;;;;5057358;28;20193;-73
2022/06/29 00:41:14;;;;;;;1721.22;999.90;;;18.10;99.90;;;;;;5038124;28;20189;-72
2022/06/29 00:43:41;;;;;;;1724.13;999.90;;;18.00;99.90;;;;;;5061127;28;20196;-73
2022/06/29 00:46:08;;;;;;;1717.88;999.90;;;18.00;99.90;;;;;;5077697;28;20274;-73
2022/06/29 00:48:34;;;;;;;1711.18;999.90;;;17.90;99.90;;;;;;5068500;28;20185;-72
2022/06/29 00:51:03;;;;;;;1709.75;999.90;;;17.90;99.90;;;;;;5089741;28;20666;-72
2022/06/29 00:53:32;;;;;;;1703.40;999.90;;;17.90;99.90;;;;;;5067124;28;20193;-73
2022/06/29 00:56:01;;;;;;;1725.72;999.90;;;17.80;99.90;;;;;;5091237;28;20192;-72
2022/06/29 00:58:28;;;;;;;1717.25;999.90;;;17.70;99.90;;;;;;5078561;28;20229;-72
2022/06/29 01:01:01;;;;;;;1757.40;999.90;;;17.70;99.90;;;;;;5077869;28;20215;-72
2022/06/29 01:03:27;;;;;;;1746.60;999.90;;;17.70;99.90;;;;;;5082107;28;20193;-72
2022/06/29 01:05:52;;;;;;;1766.93;999.90;;;17.60;99.90;;;;;;5077257;28;20234;-73
2022/06/29 01:08:18;;;;;;;1756.50;999.90;;;17.70;99.90;;;;;;5077092;28;20235;-72
2022/06/29 01:10:44;;;;;;;1773.53;999.90;;;17.70;99.90;;;;;;5076883;28;20227;-72
2022/06/29 01:13:11;;;;;;;1769.20;999.90;;;17.70;99.90;;;;;;5075329;28;20219;-72
2022/06/29 01:15:36;;;;;;;1806.00;999.90;;;17.60;99.90;;;;;;5074633;28;20224;-72
2022/06/29 01:18:02;;;;;;;1807.25;999.90;;;17.60;99.90;;;;;;5076121;28;20252;-72
2022/06/29 01:20:28;;;;;;;1783.35;999.90;;;17.60;99.90;;;;;;5066888;28;20184;-73
2022/06/29 01:22:54;;;;;;;1806.65;999.90;;;17.60;99.90;;;;;;5081092;28;20238;-72
2022/06/29 01:25:20;;;;;;;1820.50;999.90;;;17.60;99.90;;;;;;5065447;28;20177;-72
2022/06/29 01:27:46;;;;;;;1829.15;999.90;;;17.60;99.90;;;;;;5071021;28;20669;-72
2022/06/29 01:30:12;;;;;;;1824.50;999.90;;;17.60;99.90;;;;;;5093305;28;20260;-72
2022/06/29 01:32:39;;;;;;;1824.25;999.90;;;17.50;99.90;;;;;;5090464;28;20177;-72
2022/06/29 01:35:16;;;;;;;1823.60;999.90;;;17.60;99.90;;;;;;5074133;28;20185;-72
2022/06/29 01:37:42;;;;;;;1856.47;999.90;;;17.50;99.90;;;;;;5078460;28;20181;-72
2022/06/29 01:40:10;;;;;;;1830.63;999.90;;;17.60;99.90;;;;;;5087889;28;20195;-72
2022/06/29 01:42:35;;;;;;;1832.45;999.90;;;17.50;99.90;;;;;;5065494;28;20268;-72
2022/06/29 01:45:01;;;;;;;1853.22;999.90;;;17.50;99.90;;;;;;5094358;28;20677;-72
2022/06/29 01:47:27;;;;;;;1827.82;999.90;;;17.40;99.90;;;;;;5079128;28;20576;-72
2022/06/29 01:49:53;;;;;;;1824.15;999.90;;;17.40;99.90;;;;;;5051497;28;20192;-72
2022/06/29 01:52:18;;;;;;;1843.05;999.90;;;17.30;99.90;;;;;;5075303;28;20207;-72
2022/06/29 01:54:44;;;;;;;1832.35;999.90;;;17.30;99.90;;;;;;5073032;28;20259;-72
2022/06/29 01:57:10;;;;;;;1836.28;999.90;;;17.30;99.90;;;;;;5077903;28;20235;-72
2022/06/29 01:59:35;;;;;;;1876.72;999.90;;;17.30;99.90;;;;;;5057202;28;20177;-73
2022/06/29 02:02:01;;;;;;;1892.22;999.90;;;17.20;99.90;;;;;;5058867;28;20660;-72
2022/06/29 02:04:27;;;;;;;1859.57;999.90;;;17.20;99.90;;;;;;5077165;28;20227;-73
2022/06/29 02:06:53;;;;;;;1900.03;999.90;;;17.20;99.90;;;;;;5060490;28;20201;-72
2022/06/29 02:09:18;;;;;;;1918.82;999.90;;;17.10;99.90;;;;;;5083984;28;20189;-73
2022/06/29 02:11:44;;;;;;;1864.93;999.90;;;17.10;99.90;;;;;;5075213;28;20190;-72
2022/06/29 02:14:10;;;;;;;1902.07;999.90;;;17.10;99.90;;;;;;5077133;28;20212;-72
2022/06/29 02:16:36;;;;;;;1884.15;999.90;;;17.10;99.90;;;;;;5093572;28;20208;-72
2022/06/29 02:19:02;;;;;;;1924.30;999.90;;;17.20;99.90;;;;;;5076490;28;20184;-72
2022/06/29 02:21:28;;;;;;;1941.50;999.90;;;17.20;99.90;;;;;;5077635;28;20181;-72
2022/06/29 02:23:54;;;;;;;1969.28;999.90;;;17.20;99.90;;;;;;5089095;28;20189;-72
2022/06/29 02:26:19;;;;;;;1934.95;999.90;;;17.10;99.90;;;;;;5059218;28;20211;-72
2022/06/29 02:28:45;;;;;;;1971.78;999.90;;;17.00;99.90;;;;;;5090220;28;20223;-72
2022/06/29 02:36:39;;;;;;;1978.35;999.90;;;17.00;99.90;;;;;;5093068;28;20200;-72
2022/06/29 02:39:05;;;;;;;1965.78;999.90;;;17.00;99.90;;;;;;5075890;28;20189;-72
2022/06/29 02:41:30;;;;;;;1945.97;999.90;;;16.90;99.90;;;;;;5090434;28;20184;-72
2022/06/29 02:43:56;;;;;;;1966.63;999.90;;;16.90;99.90;;;;;;5068895;28;20220;-72
2022/06/29 02:46:22;;;;;;;1967.15;999.90;;;16.90;99.90;;;;;;5062414;28;20266;-72
2022/06/29 02:48:47;;;;;;;1942.13;999.90;;;16.90;99.90;;;;;;5063352;28;20200;-73
2022/06/29 02:51:13;;;;;;;1973.47;999.90;;;16.90;99.90;;;;;;5088265;28;20185;-72
2022/06/29 02:53:39;;;;;;;1992.90;999.90;;;16.90;99.90;;;;;;5049384;28;20189;-72
2022/06/29 02:56:04;;;;;;;1994.28;999.90;;;16.80;99.90;;;;;;5073877;28;20209;-72
2022/06/29 02:58:30;;;;;;;1968.68;999.90;;;16.70;99.90;;;;;;5074142;28;20185;-72
2022/06/29 03:00:56;;;;;;;1974.70;999.90;;;16.70;99.90;;;;;;5062585;28;20282;-72
2022/06/29 03:03:21;;;;;;;1989.10;999.90;;;16.60;99.90;;;;;;5058710;28;20192;-71
2022/06/29 03:05:47;;;;;;;1999.45;999.90;;;16.60;99.90;;;;;;5079815;28;20250;-72
2022/06/29 03:08:13;;;;;;;1999.90;999.90;;;16.70;99.90;;;;;;5061328;28;20588;-72
2022/06/29 03:10:38;;;;;;;1999.90;999.90;;;16.70;99.90;;;;;;5064514;28;20182;-72
2022/06/29 03:13:04;;;;;;;1999.90;999.90;;;16.70;99.90;;;;;;5036544;28;20185;-72
2022/06/29 03:15:30;;;;;;;1999.90;999.90;;;16.70;99.90;;;;;;5074419;28;20185;-71
2022/06/29 03:17:56;;;;;;;1999.90;999.90;;;16.70;99.90;;;;;;5040707;28;20655;-72
2022/06/29 03:20:22;;;;;;;1999.90;999.90;;;16.70;99.90;;;;;;5085328;28;20196;-72
2022/06/29 03:22:48;;;;;;;1999.90;999.90;;;16.70;99.90;;;;;;5066847;28;20197;-73
2022/06/29 03:25:17;;;;;;;1999.90;999.90;;;16.60;99.90;;;;;;5066845;28;20196;-72
2022/06/29 03:27:43;;;;;;;1999.90;999.90;;;16.60;99.90;;;;;;5065870;28;20612;-72
2022/06/29 03:30:09;;;;;;;1999.90;999.90;;;16.50;99.90;;;;;;5079678;28;20189;-72
2022/06/29 03:32:35;;;;;;;1999.90;999.90;;;16.50;99.90;;;;;;5063559;28;20185;-72
2022/06/29 03:35:01;;;;;;;1999.90;999.90;;;16.50;99.90;;;;;;5073594;28;20641;-72
2022/06/29 03:37:26;;;;;;;1999.90;999.90;;;16.40;99.90;;;;;;5083788;28;20189;-72
2022/06/29 03:39:52;;;;;;;1999.90;999.90;;;16.40;99.90;;;;;;5087362;28;20200;-72
2022/06/29 03:42:18;;;;;;;1999.90;999.90;;;16.40;99.90;;;;;;5091863;28;20184;-71
2022/06/29 03:44:43;;;;;;;1999.90;999.90;;;16.40;99.90;;;;;;5074805;28;20189;-72
2022/06/29 03:47:09;;;;;;;1999.90;999.90;;;16.40;99.90;;;;;;5074357;28;20232;-72
2022/06/29 03:49:35;;;;;;;1999.90;999.90;;;16.40;99.90;;;;;;5092925;28;20289;-72
2022/06/29 03:52:02;;;;;;;1999.90;999.90;;;16.40;99.90;;;;;;5092654;28;20193;-72
2022/06/29 03:54:28;;;;;;;1999.90;999.90;;;16.40;99.90;;;;;;5061948;28;20192;-72
2022/06/29 03:56:53;;;;;;;1999.90;999.90;;;16.50;99.90;;;;;;5065492;28;20537;-72
2022/06/29 03:59:19;;;;;;;1999.90;999.90;;;16.50;99.90;;;;;;5090560;28;20192;-72
2022/06/29 04:01:46;;;;;;;1999.90;999.90;;;16.50;99.90;;;;;;5083486;28;20193;-72
2022/06/29 04:04:12;;;;;;;1999.90;999.90;;;16.50;99.90;;;;;;5077856;28;20288;-72
2022/06/29 04:06:37;;;;;;;1999.90;999.90;;;16.60;99.90;;;;;;5073012;28;20669;-72
2022/06/29 04:09:03;;;;;;;1999.90;999.90;;;16.60;99.90;;;;;;5074555;28;20203;-72
2022/06/29 04:14:13;;;;;;;1999.90;999.90;;;16.60;99.90;;;;;;5086698;28;20196;-71
2022/06/29 04:16:38;;;;;;;1999.90;999.90;;;16.60;99.90;;;;;;5068068;28;20193;-72
2022/06/29 04:19:04;;;;;;;1999.90;999.90;;;16.60;99.90;;;;;;5041292;28;20193;-72
2022/06/29 04:21:30;;;;;;;1999.90;999.90;;;16.60;99.90;;;;;;5084127;28;20666;-72
2022/06/29 04:23:55;;;;;;;1999.90;999.90;;;16.70;99.90;;;;;;5087011;28;21695;-72
2022/06/29 04:26:21;;;;;;;1999.90;999.90;;;16.80;99.90;;;;;;5076271;28;20675;-72
2022/06/29 04:28:47;;;;;;;1999.90;999.90;;;16.90;99.90;;;;;;5068994;28;20702;-72
2022/06/29 04:31:12;;;;;;;1999.90;999.90;;;17.10;99.90;;;;;;5060771;28;20658;-73
2022/06/29 04:33:38;;;;;;;1999.90;999.90;;;17.30;99.90;;;;;;5046705;28;20318;-71
2022/06/29 04:36:04;;;;;;;1999.90;999.90;;;17.40;99.90;;;;;;5060267;28;20310;-73
2022/06/29 04:38:29;;;;;;;1999.90;999.90;;;17.40;99.90;;;;;;5069867;28;20188;-73
2022/06/29 04:40:55;;;;;;;1999.90;999.90;;;17.30;99.90;;;;;;5081224;28;20259;-69
2022/06/29 04:43:20;;;;;;;1999.90;999.90;;;17.40;99.90;;;;;;5080950;28;20553;-71
2022/06/29 04:48:30;;;;;;;1999.90;999.90;;;17.50;99.90;;;;;;5083186;28;20223;-71
2022/06/29 04:50:56;;;;;;;1999.90;999.90;;;17.50;99.90;;;;;;5071884;28;20569;-71
2022/06/29 04:53:22;;;;;;;1999.90;999.90;;;17.60;99.90;;;;;;5071286;28;20212;-72
2022/06/29 04:55:47;;;;;;;1999.90;999.90;;;17.60;99.90;;;;;;5076951;28;20193;-71
2022/06/29 04:58:13;;;;;;;1999.90;999.90;;;17.60;99.90;;;;;;5092513;28;20552;-70
2022/06/29 05:00:38;;;;;;;1999.90;999.90;;;17.60;99.90;;;;;;5090301;28;20184;-68
2022/06/29 05:03:04;;;;;;;1999.90;999.90;;;17.70;99.90;;;;;;5060202;28;20185;-70
2022/06/29 05:05:30;;;;;;;1999.90;999.90;;;17.70;99.90;;;;;;5063522;28;20264;-71
2022/06/29 05:07:55;;;;;;;1999.90;999.90;;;17.80;99.90;;;;;;5051209;28;20201;-70
2022/06/29 05:10:21;;;;;;;1999.90;999.90;;;17.80;99.90;;;;;;5063796;28;20650;-70
2022/06/29 05:12:46;;;;;;;1999.90;999.90;;;17.80;99.90;;;;;;5080453;28;20274;-70
2022/06/29 05:15:12;;;;;;;1999.90;999.90;;;18.10;99.90;;;;;;5055021;28;20200;-70
2022/06/29 05:17:39;;;;;;;1999.90;999.90;;;18.20;99.90;;;;;;5051450;28;20275;-70
2022/06/29 05:20:08;;;;;;;1999.90;999.90;;;18.20;99.90;;;;;;5083252;28;20180;-70
2022/06/29 05:22:34;;;;;;;1999.90;999.90;;;18.20;99.90;;;;;;5069786;28;20189;-70
2022/06/29 05:25:00;;;;;;;1999.90;999.90;;;18.30;99.90;;;;;;5055462;28;20192;-70
2022/06/29 05:27:25;;;;;;;1999.90;999.90;;;18.30;99.90;;;;;;5060193;28;20553;-71
2022/06/29 05:29:51;;;;;;;1999.90;999.90;;;18.40;99.90;;;;;;5077780;28;20189;-71
2022/06/29 05:32:17;;;;;;;1999.90;999.90;;;18.50;99.90;;;;;;5069253;28;20196;-70
2022/06/29 05:34:42;;;;;;;1999.90;999.90;;;18.50;99.90;;;;;;5067960;28;20189;-77
2022/06/29 05:37:08;;;;;;;1999.90;999.90;;;18.60;99.90;;;;;;5061786;28;20225;-71
2022/06/29 05:39:33;;;;;;;1999.90;999.90;;;18.70;99.90;;;;;;5048463;28;20216;-70
2022/06/29 05:41:59;;;;;;;1999.90;999.90;;;19.00;99.90;;;;;;5056988;28;20277;-71
2022/06/29 05:44:25;;;;;;;1996.50;999.90;;;19.10;99.90;;;;;;5059281;28;20185;-70
2022/06/29 05:46:51;;;;;;;1999.90;999.90;;;19.30;99.90;;;;;;5049300;28;20250;-71
2022/06/29 05:49:16;;;;;;;1999.90;999.90;;;19.50;99.90;;;;;;5067503;28;20192;-70
2022/06/29 05:51:42;;;;;;;1999.90;999.90;;;19.70;99.90;;;;;;5065383;28;20187;-72
2022/06/29 05:54:08;;;;;;;1988.10;999.90;;;19.90;99.90;;;;;;5076429;28;20195;-71
2022/06/29 05:56:33;;;;;;;1979.45;999.90;;;20.20;99.90;;;;;;5065661;28;20209;-71
2022/06/29 05:58:59;;;;;;;1888.63;999.90;;;20.40;99.90;;;;;;5076773;28;20214;-74
2022/06/29 06:01:24;;;;;;;1856.47;999.90;;;20.50;99.90;;;;;;5070420;28;20182;-70
2022/06/29 06:03:50;;;;;;;1795.80;999.90;;;20.70;99.90;;;;;;5071953;28;20204;-70
2022/06/29 06:06:16;;;;;;;1740.15;999.90;;;20.90;99.90;;;;;;5069007;28;20213;-70
2022/06/29 06:08:41;;;;;;;1723.35;999.90;;;21.20;99.90;;;;;;5060524;28;20204;-70
2022/06/29 06:11:07;;;;;;;1698.80;999.90;;;21.10;99.90;;;;;;5073610;28;20189;-70
2022/06/29 06:13:35;;;;;;;1693.85;999.90;;;21.10;99.90;;;;;;5077058;28;20578;-70
2022/06/29 06:16:01;;;;;;;1711.20;999.90;;;21.00;99.90;;;;;;5059525;28;20612;-71
2022/06/29 06:18:27;;;;;;;1707.15;999.90;;;21.10;99.90;;;;;;5062804;28;20322;-71
2022/06/29 06:20:55;;;;;;;1681.35;999.90;;;21.00;99.90;;;;;;5072613;28;20219;-71
2022/06/29 06:23:21;;;;;;;1661.30;999.90;;;20.80;99.90;;;;;;5054922;28;20186;-71
2022/06/29 06:25:46;;;;;;;1642.70;999.90;;;21.00;99.90;;;;;;5065958;28;20591;-70
2022/06/29 06:28:12;;;;;;;1662.38;999.90;;;21.20;99.90;;;;;;5055182;28;20208;-70
2022/06/29 06:30:38;;;;;;;1652.93;999.90;;;21.30;99.90;;;;;;5050867;28;20643;-70
2022/06/29 06:33:04;;;;;;;1610.82;999.90;;;21.30;99.90;;;;;;5069601;28;20185;-70
2022/06/29 06:35:30;;;;;;;1631.88;999.90;;;21.30;99.90;;;;;;5076287;28;20668;-69
2022/06/29 06:37:56;;;;;;;1579.47;999.90;;;21.50;99.90;;;;;;5076155;28;20690;-70
2022/06/29 06:43:06;;;;;;;1558.75;999.90;;;21.70;99.90;;;;;;5056978;28;20284;-70
2022/06/29 06:45:32;;;;;;;1504.13;999.90;;;22.10;99.90;;;;;;5079637;28;20267;-70
2022/06/29 06:47:57;;;;;;;1376.80;999.90;;;23.50;99.90;;;;;;5070139;28;20208;-70
2022/06/29 06:50:23;;;;;;;1308.93;999.90;;;26.10;99.90;;;;;;5075522;28;20188;-70
2022/06/29 06:52:49;;;;;;;1225.50;999.90;;;28.30;99.90;;;;;;5043267;28;20181;-70
2022/06/29 06:55:15;;;;;;;1123.75;999.90;;;30.40;99.90;;;;;;5067684;28;20188;-70
2022/06/29 06:57:41;;;;;;;1010.33;940.60;;;32.30;99.90;;;;;;5072304;28;20192;-71
2022/06/29 07:00:09;;;;;;;865.38;810.63;;;33.60;99.90;;;;;;5060199;28;20276;-70
2022/06/29 07:02:35;;;;;;;705.67;666.00;;;34.50;99.90;;;;;;5072139;28;20245;-70
2022/06/29 07:05:03;;;;;;;569.28;541.13;;;35.10;99.90;;;;;;5078382;28;20581;-69
2022/06/29 07:07:28;;;;;;;435.77;416.55;;;35.50;99.90;;;;;;5072164;28;20199;-70
2022/06/29 07:09:54;;;;;;;363.83;348.38;;;35.50;99.90;;;;;;5056487;28;20660;-69
2022/06/29 07:12:20;;;;;;;289.55;276.45;;;35.90;99.90;;;;;;5064051;28;20229;-70
2022/06/29 07:14:45;;;;;;;231.25;220.68;;;36.60;99.90;;;;;;5089062;28;20195;-70
2022/06/29 07:17:11;;;;;;;163.23;155.98;;;36.90;99.90;;;;;;5053999;28;20188;-73
2022/06/29 07:19:36;;;;;;;137.95;130.68;;;37.00;99.90;;;;;;5070149;28;20267;-70
2022/06/29 07:22:02;;;;;;;126.07;119.78;;;36.90;99.90;;;;;;5058656;28;20523;-70
2022/06/29 07:24:28;;;;;;;122.68;116.40;;;37.10;99.90;;;;;;5056561;28;20290;-70
2022/06/29 07:26:54;;;;;;;124.40;117.97;;;37.20;99.90;;;;;;5055914;28;20724;-70
2022/06/29 07:29:19;;;;;;;126.28;119.70;;;37.40;99.90;;;;;;5064452;28;20556;-70
2022/06/29 07:31:45;;;;;;;135.07;127.93;;;37.90;99.90;;;;;;5069384;28;20194;-70
2022/06/29 07:34:10;;;;;;;134.73;127.18;;;38.50;99.20;;;;;;5089024;28;20207;-70
2022/06/29 07:36:36;;;;;;;152.77;144.68;;;38.80;98.30;;;;;;5072035;28;20203;-70
2022/06/29 07:39:02;;;;;;;150.32;142.30;;;39.20;97.80;;;;;;5063971;28;20189;-70
2022/06/29 07:41:28;;;;;;;154.75;146.73;;;39.40;97.40;;;;;;5086877;28;20196;-70
2022/06/29 07:43:53;;;;;;;155.68;147.43;;;39.30;96.60;;;;;;5067948;28;20211;-69
2022/06/29 07:46:20;;;;;;;201.85;191.30;;;39.40;96.50;;;;;;5056094;28;20285;-70
2022/06/29 07:48:46;;;;;;;225.63;213.65;;;39.20;96.10;;;;;;5063623;28;20200;-69
2022/06/29 07:51:11;;;;;;;310.80;294.20;;;38.90;95.70;;;;;;5052465;28;20282;-70
2022/06/29 07:53:37;;;;;;;448.88;426.30;;;38.40;95.50;;;;;;5069454;28;20298;-69
2022/06/29 07:56:03;;;;;;;501.10;475.60;;;38.20;95.60;;;;;;5057550;28;20525;-70
2022/06/29 07:58:28;;;;;;;572.70;542.53;;;37.60;95.20;;;;;;5090166;28;20187;-71
2022/06/29 08:00:54;;;;;;;596.42;564.30;;;37.20;95.00;;;;;;5066870;28;20653;-70
2022/06/29 08:03:20;;;;;;;616.10;582.47;;;36.80;95.30;;;;;;5072782;28;20195;-70
2022/06/29 08:05:45;;;;;;;567.83;537.33;;;37.00;95.80;;;;;;5074457;28;20192;-70
2022/06/29 08:08:11;;;;;;;593.88;561.63;;;37.50;95.70;;;;;;5092010;28;20283;-71
2022/06/29 08:10:37;;;;;;;644.67;609.13;;;37.30;94.80;;;;;;5057862;28;20191;-70
2022/06/29 08:13:02;;;;;;;624.15;589.85;;;37.20;94.80;;;;;;5061081;28;20183;-71
2022/06/29 08:15:29;;;;;;;611.88;578.30;;;37.30;94.50;;;;;;5083057;28;20195;-70
2022/06/29 08:17:54;;;;;;;591.13;558.67;;;37.90;94.30;;;;;;5072008;28;20522;-70
2022/06/29 08:20:20;;;;;;;647.80;611.55;;;37.90;94.00;;;;;;5072715;28;20230;-70
2022/06/29 08:22:46;;;;;;;647.50;611.53;;;38.00;93.60;;;;;;5074811;28;20180;-70
2022/06/29 08:25:12;;;;;;;698.72;658.17;;;38.10;93.90;;;;;;5060762;28;20180;-71
2022/06/29 08:27:39;;;;;;;768.35;722.33;;;37.60;94.00;;;;;;5044195;28;20212;-70
2022/06/29 08:30:06;;;;;;;798.80;749.15;;;36.70;93.80;;;;;;5085803;28;20242;-70
2022/06/29 08:32:32;;;;;;;783.35;735.85;;;36.40;94.40;;;;;;5072921;28;20181;-71
2022/06/29 08:35:00;;;;;;;741.20;697.28;;;36.80;94.20;;;;;;5052720;28;20195;-71
2022/06/29 08:37:29;;;;;;;739.83;695.50;;;37.10;94.50;;;;;;5069846;28;20184;-71
2022/06/29 08:39:55;;;;;;;716.15;674.38;;;37.70;93.90;;;;;;5053109;28;20184;-71
2022/06/29 08:42:22;;;;;;;660.00;622.78;;;37.70;94.40;;;;;;5065481;28;20555;-72
2022/06/29 08:44:51;;;;;;;587.58;555.42;;;38.20;95.20;;;;;;5072407;28;20181;-71
2022/06/29 08:47:17;;;;;;;589.38;557.58;;;39.20;94.50;;;;;;5072577;28;20196;-70
2022/06/29 08:49:46;;;;;;;573.20;542.08;;;39.30;93.30;;;;;;5068369;28;20214;-70
2022/06/29 08:52:11;;;;;;;539.30;511.02;;;39.80;92.70;;;;;;5069947;28;20176;-71
2022/06/29 08:54:42;;;;;;;563.20;533.03;;;39.20;93.50;;;;;;5069680;28;20237;-71
2022/06/29 08:57:08;;;;;;;569.63;538.38;;;39.40;93.30;;;;;;5070222;28;20551;-71
2022/06/29 08:59:34;;;;;;;577.40;545.80;;;39.70;92.60;;;;;;5043026;28;20180;-72
2022/06/29 09:02:00;;;;;;;557.63;528.20;;;39.30;92.70;;;;;;5068635;28;20199;-71
2022/06/29 09:04:27;;;;;;;568.78;538.03;;;39.80;92.10;;;;;;5081939;28;20332;-70
2022/06/29 09:06:54;;;;;;;624.30;590.03;;;39.60;92.10;;;;;;5077277;28;20218;-71
2022/06/29 09:09:20;;;;;;;639.40;604.28;;;39.90;91.10;;;;;;5076406;28;20185;-71
2022/06/29 09:11:46;;;;;;;654.80;618.35;;;39.50;91.30;;;;;;5048613;28;20275;-71
2022/06/29 09:14:24;;;;;;;675.90;637.75;;;38.80;91.50;;;;;;5060269;28;20181;-71
2022/06/29 09:16:56;;;;;;;696.60;656.35;;;38.50;91.30;;;;;;5076461;28;20222;-70
2022/06/29 09:19:23;;;;;;;717.03;675.30;;;38.00;91.10;;;;;;5077592;28;20208;-71
2022/06/29 09:21:54;;;;;;;704.03;663.38;;;38.30;91.60;;;;;;5080007;28;20214;-74
2022/06/29 09:24:22;;;;;;;718.60;676.33;;;38.80;91.40;;;;;;5077360;28;20180;-71
2022/06/29 09:26:56;;;;;;;679.60;640.97;;;39.00;90.80;;;;;;5075990;28;20220;-72
2022/06/29 09:29:25;;;;;;;666.70;628.85;;;39.40;91.20;;;;;;5074932;28;20271;-71
2022/06/29 09:32:05;;;;;;;678.10;639.22;;;39.40;90.50;;;;;;5080652;28;20218;-71
2022/06/29 09:34:31;;;;;;;666.85;628.55;;;39.40;90.20;;;;;;5082772;28;20192;-72
2022/06/29 09:36:59;;;;;;;657.65;620.35;;;39.80;90.40;;;;;;5067686;28;20203;-71
2022/06/29 09:39:38;;;;;;;645.20;609.30;;;39.40;90.40;;;;;;5062366;28;20189;-72
2022/06/29 09:42:06;;;;;;;698.38;657.95;;;38.30;90.70;;;;;;5085874;28;20208;-71
2022/06/29 09:44:33;;;;;;;755.80;710.65;;;36.80;91.30;;;;;;5068907;28;20183;-71
2022/06/29 09:46:58;;;;;;;834.05;782.25;;;35.60;92.10;;;;;;5064316;28;20205;-70
2022/06/29 09:49:27;;;;;;;903.30;844.45;;;34.50;93.10;;;;;;5074619;28;20811;-69
2022/06/29 09:51:57;;;;;;;947.55;884.20;;;33.30;93.90;;;;;;5071886;28;20227;-70
2022/06/29 09:54:40;;;;;;;954.22;890.78;;;32.40;94.10;;;;;;5069075;28;20180;-70
2022/06/29 09:57:07;;;;;;;974.42;909.17;;;32.00;94.90;;;;;;5083126;28;20606;-71
2022/06/29 10:02:36;;;;;;;1011.03;941.33;;;31.70;95.50;;;;;;5075397;28;20266;-71
2022/06/29 10:05:05;;;;;;;1006.33;937.47;;;31.30;95.60;;;;;;5060713;28;20280;-71
2022/06/29 10:07:32;;;;;;;1016.60;946.45;;;31.00;96.10;;;;;;5067641;28;20212;-72
2022/06/29 10:09:59;;;;;;;1012.42;943.13;;;30.60;96.60;;;;;;5068689;28;20557;-71
2022/06/29 10:15:47;;;;;;;1012.63;943.20;;;30.60;96.50;;;;;;5081285;28;20217;-72
2022/06/29 10:18:38;;;;;;;1000.33;932.17;;;30.70;97.50;;;;;;5073147;28;20266;-71
2022/06/29 10:21:13;;;;;;;997.53;930.40;;;30.50;97.10;;;;;;5075455;28;20177;-70
2022/06/29 10:23:46;;;;;;;1001.60;933.22;;;30.40;96.80;;;;;;5070188;28;20178;-71
2022/06/29 10:26:35;;;;;;;983.20;916.90;;;30.40;96.80;;;;;;5081425;28;20185;-70
2022/06/29 10:29:09;;;;;;;988.42;921.47;;;30.40;97.40;;;;;;5083443;28;20184;-71
2022/06/29 10:31:56;;;;;;;994.08;927.22;;;30.30;96.80;;;;;;5085914;28;20172;-72
2022/06/29 10:34:31;;;;;;;976.00;910.42;;;30.30;97.30;;;;;;5062093;28;20595;-71
2022/06/29 10:37:03;;;;;;;972.33;907.50;;;30.20;97.20;;;;;;5090094;28;20183;-72
2022/06/29 10:39:49;;;;;;;970.03;904.90;;;30.10;96.50;;;;;;5076498;28;20663;-71
2022/06/29 10:45:13;;;;;;;968.42;902.97;;;30.00;96.90;;;;;;5076286;28;20191;-71
2022/06/29 10:47:39;;;;;;;972.75;907.72;;;30.00;96.30;;;;;;5078300;28;20705;-72
2022/06/29 10:50:19;;;;;;;965.33;900.65;;;29.90;96.30;;;;;;5075686;28;20271;-71
2022/06/29 10:52:45;;;;;;;956.10;892.72;;;30.10;97.10;;;;;;5064760;28;20181;-71
2022/06/29 10:55:11;;;;;;;922.15;861.78;;;30.20;97.40;;;;;;5090422;28;20188;-71
2022/06/29 10:57:39;;;;;;;925.92;865.42;;;30.30;97.10;;;;;;5091411;28;20193;-72
2022/06/29 11:00:12;;;;;;;942.72;880.75;;;30.40;95.80;;;;;;5074646;28;20659;-71
2022/06/29 11:02:38;;;;;;;943.00;881.08;;;30.40;95.90;;;;;;5057039;28;20645;-71
2022/06/29 11:05:04;;;;;;;935.35;873.88;;;30.50;95.70;;;;;;5046633;28;20323;-71
2022/06/29 11:12:59;;;;;;;955.00;890.97;;;30.50;96.10;;;;;;5089708;28;20695;-71
2022/06/29 11:18:11;;;;;;;936.65;875.40;;;30.40;96.40;;;;;;5085127;28;20203;-72
2022/06/29 11:20:38;;;;;;;923.00;862.50;;;30.50;96.60;;;;;;5064753;28;20180;-72
2022/06/29 11:23:12;;;;;;;914.53;854.95;;;30.60;96.00;;;;;;5091934;28;20188;-71
2022/06/29 11:25:47;;;;;;;917.05;857.42;;;30.80;95.40;;;;;;5078525;28;20585;-71
2022/06/29 11:28:16;;;;;;;939.50;877.53;;;30.80;95.10;;;;;;5086556;28;20206;-71
2022/06/29 11:30:56;;;;;;;942.30;880.33;;;30.80;95.30;;;;;;5080536;28;20180;-71
2022/06/29 11:33:31;;;;;;;954.15;890.40;;;30.40;95.60;;;;;;5074856;28;20218;-71
2022/06/29 11:35:57;;;;;;;934.40;872.33;;;30.30;95.70;;;;;;5075267;28;20214;-71
2022/06/29 11:38:27;;;;;;;959.38;895.17;;;30.40;96.30;;;;;;5073926;28;20180;-71
2022/06/29 11:40:54;;;;;;;965.67;900.63;;;30.40;96.30;;;;;;5092714;28;20238;-71
2022/06/29 11:43:21;;;;;;;948.63;885.38;;;30.30;95.80;;;;;;5087232;28;20537;-71
2022/06/29 11:45:53;;;;;;;984.42;918.30;;;30.30;95.60;;;;;;5051784;28;20283;-71
2022/06/29 11:48:20;;;;;;;971.40;906.45;;;30.50;95.50;;;;;;5065051;28;20199;-72
2022/06/29 11:50:53;;;;;;;972.28;907.30;;;30.60;95.60;;;;;;5072432;28;20234;-72
2022/06/29 11:53:43;;;;;;;963.47;898.50;;;30.40;95.80;;;;;;5086351;28;20226;-71
2022/06/29 11:56:23;;;;;;;950.50;887.25;;;30.30;96.60;;;;;;5079242;28;20190;-71
2022/06/29 11:58:51;;;;;;;951.20;888.47;;;30.70;96.20;;;;;;5090854;28;20206;-72
2022/06/29 12:01:19;;;;;;;943.65;880.97;;;30.80;95.50;;;;;;5070174;28;20200;-72
2022/06/29 12:03:59;;;;;;;963.83;899.03;;;30.80;95.90;;;;;;5073229;28;20207;-73
2022/06/29 12:06:43;;;;;;;979.35;913.08;;;30.70;95.40;;;;;;5070406;28;20179;-71
2022/06/29 12:09:10;;;;;;;966.97;901.70;;;30.60;95.50;;;;;;5066788;28;20241;-71
2022/06/29 12:11:35;;;;;;;960.05;895.22;;;30.40;96.20;;;;;;5070296;28;20192;-73
2022/06/29 12:14:01;;;;;;;947.75;884.58;;;30.60;96.40;;;;;;5086834;28;20211;-71
2022/06/29 12:16:27;;;;;;;947.90;884.95;;;30.70;96.40;;;;;;5074719;28;20208;-71
2022/06/29 12:18:52;;;;;;;937.90;875.75;;;30.70;96.50;;;;;;5063995;28;20210;-71
2022/06/29 12:21:19;;;;;;;944.95;881.95;;;30.80;96.40;;;;;;5072975;28;20184;-72
2022/06/29 12:23:45;;;;;;;936.38;874.63;;;30.60;96.90;;;;;;5075934;28;20263;-71
2022/06/29 12:26:10;;;;;;;949.40;886.50;;;30.60;95.90;;;;;;5063453;28;20271;-72
2022/06/29 12:28:38;;;;;;;979.28;914.05;;;30.50;95.80;;;;;;5074565;28;20601;-72
2022/06/29 12:31:05;;;;;;;978.22;912.25;;;30.30;95.50;;;;;;5063266;28;20641;-71
2022/06/29 12:33:31;;;;;;;987.75;921.28;;;30.10;95.90;;;;;;5090190;28;20654;-71
2022/06/29 12:35:56;;;;;;;981.08;914.40;;;30.00;96.30;;;;;;5070385;28;20180;-75